Terminal Aerodrome Forecast
Issued by NWS Billings, MT

Home | Current Version | Previous Version | Text Only | Print | Product List | Glossary On
Versions: 1 2 3 4 5 6 7 8 9 10 11 12 13 14 15 16 17 18 19 20 21 22 23 24 25 26 27 28 29 30 31 32
000
FTUS45 KBYZ 040259 AAA
TAFSHR
TAF AMD
KSHR 040259Z 0403/0424 16011KT P6SM VCTS SCT090CB BKN150
      TEMPO 0403/0405 VRB15G25KT
     FM040500 16007KT P6SM VCSH SCT080 BKN120
     FM040800 VRB05KT P6SM VCSH BKN080
     FM041500 30013KT P6SM -SHRA VCTS BKN060CB
     FM041900 31015G22KT P6SM -SHRA VCTS SCT060CB BKN090=

USA.gov is the U.S. government's official web portal to all federal, state and local government web resources and services.